Time;durP1;ratioP1;P1;durP2;ratioP2;P2;SDS_P1;SDS_P2;PMS_P1;PMS_P2;Temp;Humidity;BMP_temperature;BMP_pressure;BME280_temperature;BME280_humidity;BME280_pressure;Samples;Min_cycle;Max_cycle;Signal;HPM_P1;HPM_P2
2023/06/09 00:01:44;;;;;;;16.90;9.35;;;19.20;72.90;;;;;;5029315;28;20040;-82
2023/06/09 00:04:13;;;;;;;15.85;9.48;;;19.10;73.20;;;;;;5033646;28;20079;-81
2023/06/09 00:06:39;;;;;;;17.48;9.88;;;19.10;73.30;;;;;;5044479;28;20043;-81
2023/06/09 00:09:06;;;;;;;16.55;9.95;;;19.10;73.30;;;;;;5040002;28;20091;-82
2023/06/09 00:11:33;;;;;;;18.42;9.85;;;19.10;73.20;;;;;;5033801;28;20043;-81
2023/06/09 00:13:59;;;;;;;15.18;9.60;;;19.00;73.40;;;;;;5037709;28;20384;-81
2023/06/09 00:16:25;;;;;;;18.75;9.30;;;19.00;73.50;;;;;;5040465;28;20047;-82
2023/06/09 00:18:51;;;;;;;18.73;9.70;;;19.00;73.50;;;;;;5040544;28;20052;-82
2023/06/09 00:21:18;;;;;;;14.30;9.80;;;19.00;73.40;;;;;;5037790;28;20029;-81
2023/06/09 00:23:46;;;;;;;15.18;9.52;;;19.00;73.40;;;;;;5039174;28;20029;-82
2023/06/09 00:26:13;;;;;;;17.33;10.07;;;18.90;73.60;;;;;;5036429;28;20083;-81
2023/06/09 00:28:39;;;;;;;16.38;9.85;;;18.90;73.70;;;;;;5038188;28;20033;-82
2023/06/09 00:31:05;;;;;;;17.85;9.55;;;18.80;73.80;;;;;;5038789;28;20026;-81
2023/06/09 00:33:30;;;;;;;14.90;9.35;;;18.80;73.80;;;;;;5038972;28;20445;-81
2023/06/09 00:35:56;;;;;;;14.45;9.20;;;18.70;73.90;;;;;;5038659;28;20028;-81
2023/06/09 00:38:22;;;;;;;17.70;9.07;;;18.70;73.90;;;;;;5037886;28;20071;-81
2023/06/09 00:40:50;;;;;;;17.67;9.77;;;18.70;73.80;;;;;;5035811;28;20026;-82
2023/06/09 00:43:16;;;;;;;17.63;10.07;;;18.80;73.80;;;;;;5033121;28;20037;-80
2023/06/09 00:45:41;;;;;;;16.20;9.90;;;18.70;73.80;;;;;;5040385;28;20025;-81
2023/06/09 00:48:07;;;;;;;16.13;9.63;;;18.70;73.90;;;;;;5041715;28;20040;-81
2023/06/09 00:50:34;;;;;;;15.43;9.82;;;18.60;74.00;;;;;;5040597;28;20091;-81
2023/06/09 00:53:00;;;;;;;16.25;8.88;;;18.60;74.10;;;;;;5036704;28;20394;-82
2023/06/09 00:55:27;;;;;;;17.33;8.77;;;18.60;74.20;;;;;;5036165;28;20078;-81
2023/06/09 00:57:55;;;;;;;17.98;9.00;;;18.60;74.10;;;;;;5036197;28;20068;-83
2023/06/09 01:00:24;;;;;;;16.88;9.25;;;18.50;74.20;;;;;;5033449;28;20167;-82
2023/06/09 01:02:50;;;;;;;20.52;9.45;;;18.50;74.20;;;;;;5035843;28;20117;-81
2023/06/09 01:05:16;;;;;;;14.30;9.25;;;18.50;74.20;;;;;;5036409;28;20471;-81
2023/06/09 01:07:54;;;;;;;16.15;8.77;;;18.50;74.20;;;;;;5036284;28;20053;-81
2023/06/09 01:10:37;;;;;;;15.95;9.05;;;18.50;74.20;;;;;;5043407;28;20521;-82
2023/06/09 01:13:16;;;;;;;15.38;10.18;;;18.50;74.00;;;;;;5040804;28;20063;-81
2023/06/09 01:15:50;;;;;;;14.68;9.27;;;18.40;74.20;;;;;;5036878;28;20032;-81
2023/06/09 01:18:17;;;;;;;15.45;9.48;;;18.40;74.40;;;;;;5036906;28;20078;-81
2023/06/09 01:21:12;;;;;;;17.75;9.20;;;18.40;74.40;;;;;;5030941;28;20091;-82
2023/06/09 01:23:44;;;;;;;;;;;18.30;74.50;;;;;;5031797;28;20040;-81
2023/06/09 01:26:12;;;;;;;16.55;9.30;;;18.30;74.50;;;;;;5043695;28;19917;-81
2023/06/09 01:28:39;;;;;;;17.67;9.93;;;18.30;74.60;;;;;;5043288;28;20060;-82
2023/06/09 01:31:07;;;;;;;15.27;9.25;;;18.20;74.70;;;;;;5030619;28;20025;-81
2023/06/09 01:33:36;;;;;;;15.80;9.68;;;18.20;74.80;;;;;;5041468;28;20021;-81
2023/06/09 01:36:02;;;;;;;16.65;9.00;;;18.10;74.80;;;;;;5035936;28;20021;-81
2023/06/09 01:38:28;;;;;;;13.15;8.43;;;18.10;74.80;;;;;;5043620;28;20049;-81
2023/06/09 01:40:54;;;;;;;21.08;11.15;;;18.20;74.80;;;;;;5039807;28;20182;-82
2023/06/09 01:43:20;;;;;;;16.15;9.38;;;18.10;74.90;;;;;;5040737;28;20112;-82
2023/06/09 01:45:47;;;;;;;19.08;9.82;;;18.00;75.20;;;;;;5032825;28;20120;-79
2023/06/09 01:48:21;;;;;;;15.73;9.00;;;18.00;75.20;;;;;;5038796;28;20036;-81
2023/06/09 01:50:54;;;;;;;17.10;10.35;;;17.90;75.40;;;;;;5038923;28;20397;-81
2023/06/09 01:53:34;;;;;;;14.73;9.15;;;17.90;75.30;;;;;;5035337;28;20440;-81
2023/06/09 01:56:26;;;;;;;15.20;9.38;;;17.80;75.50;;;;;;5041576;28;20495;-81
2023/06/09 01:58:56;;;;;;;15.43;9.13;;;17.80;75.50;;;;;;5045802;28;20044;-82
2023/06/09 02:01:24;;;;;;;16.23;9.63;;;17.80;75.50;;;;;;5040579;28;20502;-81
2023/06/09 02:03:53;;;;;;;15.40;9.43;;;17.90;75.40;;;;;;5039034;28;20032;-81
2023/06/09 02:06:19;;;;;;;15.98;9.70;;;17.80;75.50;;;;;;5038681;28;20420;-81
2023/06/09 02:08:45;;;;;;;19.02;9.40;;;17.80;75.50;;;;;;5039415;28;20374;-81
2023/06/09 02:11:11;;;;;;;17.40;9.35;;;17.80;75.50;;;;;;5039060;28;20186;-81
2023/06/09 02:13:37;;;;;;;16.08;9.50;;;17.80;75.50;;;;;;5032651;28;20549;-81
2023/06/09 02:16:03;;;;;;;16.13;9.80;;;17.70;75.40;;;;;;5037736;28;20055;-81
2023/06/09 02:18:29;;;;;;;17.02;10.40;;;17.60;75.80;;;;;;5047739;28;20041;-80
2023/06/09 02:20:55;;;;;;;16.98;9.55;;;17.60;75.90;;;;;;5035997;28;20040;-80
2023/06/09 02:23:22;;;;;;;15.57;9.70;;;17.60;75.90;;;;;;5036502;28;20379;-81
2023/06/09 02:25:48;;;;;;;14.43;9.73;;;17.60;75.80;;;;;;5037643;28;20032;-80
2023/06/09 02:28:16;;;;;;;16.33;9.80;;;17.60;76.00;;;;;;5034015;28;20037;-80
2023/06/09 02:30:42;;;;;;;15.32;9.25;;;17.50;76.20;;;;;;5038076;28;20020;-81
2023/06/09 02:33:08;;;;;;;18.13;10.60;;;17.50;76.10;;;;;;5044313;28;20417;-81
2023/06/09 02:35:34;;;;;;;20.13;10.68;;;17.50;76.10;;;;;;5043926;28;20037;-81
2023/06/09 02:38:05;;;;;;;18.42;10.75;;;17.40;76.20;;;;;;5045684;28;20045;-82
2023/06/09 02:40:32;;;;;;;12.30;9.32;;;17.40;76.40;;;;;;5035791;28;20025;-81
2023/06/09 02:42:58;;;;;;;16.45;9.68;;;17.40;76.20;;;;;;5038401;28;20033;-82
2023/06/09 02:45:24;;;;;;;16.98;10.63;;;17.40;76.20;;;;;;5041725;28;20029;-80
2023/06/09 02:47:50;;;;;;;15.25;9.77;;;17.30;76.20;;;;;;5046150;28;20423;-81
2023/06/09 02:50:16;;;;;;;16.52;9.95;;;17.20;76.40;;;;;;5040182;28;20036;-80
2023/06/09 02:52:42;;;;;;;19.85;10.15;;;17.20;76.50;;;;;;5035454;28;20433;-80
2023/06/09 02:55:08;;;;;;;14.13;9.45;;;17.20;76.60;;;;;;5042285;28;20365;-81
2023/06/09 02:57:34;;;;;;;16.85;10.50;;;17.20;76.40;;;;;;5040227;28;20396;-81
2023/06/09 03:00:00;;;;;;;15.82;9.82;;;17.20;76.40;;;;;;5039305;28;20036;-81
2023/06/09 03:02:27;;;;;;;17.92;10.95;;;17.30;76.40;;;;;;5039713;28;20048;-81
2023/06/09 03:04:53;;;;;;;16.88;9.75;;;17.20;76.40;;;;;;5041549;28;20100;-81
2023/06/09 03:07:19;;;;;;;16.20;10.18;;;17.20;76.40;;;;;;5044351;28;20141;-80
2023/06/09 03:09:44;;;;;;;15.88;10.55;;;17.20;76.40;;;;;;5034931;28;20426;-80
2023/06/09 03:12:10;;;;;;;19.15;10.82;;;17.10;76.60;;;;;;5035263;28;20029;-81
2023/06/09 03:14:36;;;;;;;16.20;10.35;;;17.10;76.60;;;;;;5038208;28;20030;-81
2023/06/09 03:17:04;;;;;;;21.05;10.43;;;17.10;76.70;;;;;;5040049;28;20033;-81
2023/06/09 03:19:30;;;;;;;16.55;9.73;;;17.10;76.70;;;;;;5033932;28;20542;-80
2023/06/09 03:21:57;;;;;;;15.65;10.57;;;17.10;76.70;;;;;;5042681;28;20033;-80
2023/06/09 03:24:24;;;;;;;16.98;9.35;;;17.10;76.60;;;;;;5039864;28;20041;-82
2023/06/09 03:26:52;;;;;;;16.58;11.02;;;17.10;76.60;;;;;;5042085;28;20037;-81
2023/06/09 03:29:18;;;;;;;14.20;10.32;;;17.10;76.60;;;;;;5044696;28;20374;-80
2023/06/09 03:31:44;;;;;;;15.75;10.65;;;17.10;76.60;;;;;;5039602;28;20027;-81
2023/06/09 03:34:09;;;;;;;16.92;10.52;;;17.10;76.50;;;;;;5043695;28;20021;-81
2023/06/09 03:36:35;;;;;;;16.52;10.73;;;17.10;76.40;;;;;;5042438;28;20368;-81
2023/06/09 03:39:01;;;;;;;16.35;10.50;;;17.10;76.40;;;;;;5043005;28;20040;-81
2023/06/09 03:41:27;;;;;;;20.80;10.35;;;17.10;76.50;;;;;;5041853;28;20328;-80
2023/06/09 03:43:53;;;;;;;18.08;11.10;;;17.10;76.50;;;;;;5043317;28;20380;-82
2023/06/09 03:46:19;;;;;;;19.83;11.18;;;17.00;76.60;;;;;;5033032;28;20159;-81
2023/06/09 03:48:44;;;;;;;16.55;10.75;;;17.00;76.70;;;;;;5043568;28;20105;-81
2023/06/09 03:51:10;;;;;;;17.52;11.15;;;16.90;76.70;;;;;;5041076;28;20088;-81
2023/06/09 03:53:36;;;;;;;17.83;10.13;;;17.00;76.70;;;;;;5031221;28;20033;-80
2023/06/09 03:56:02;;;;;;;17.42;10.80;;;17.00;76.70;;;;;;5034897;28;20029;-80
2023/06/09 03:58:27;;;;;;;17.80;10.98;;;17.00;76.60;;;;;;5039997;28;20475;-80
2023/06/09 04:00:53;;;;;;;15.82;10.50;;;17.10;76.70;;;;;;5032072;28;20091;-79
2023/06/09 04:03:20;;;;;;;17.83;11.40;;;17.10;76.40;;;;;;5030611;28;20101;-80
2023/06/09 04:05:47;;;;;;;18.15;10.13;;;17.10;76.30;;;;;;5037225;28;20120;-78
2023/06/09 04:08:13;;;;;;;16.27;10.57;;;17.10;76.60;;;;;;5034753;28;20040;-80
2023/06/09 04:10:40;;;;;;;17.45;10.90;;;17.10;76.50;;;;;;5040160;28;20068;-80
2023/06/09 04:13:05;;;;;;;16.95;11.10;;;17.10;76.50;;;;;;5042733;28;20048;-80
2023/06/09 04:15:31;;;;;;;15.90;10.98;;;17.10;76.60;;;;;;5039788;28;20413;-80
2023/06/09 04:17:58;;;;;;;15.60;11.35;;;17.10;76.40;;;;;;5036786;28;20048;-80
2023/06/09 04:20:24;;;;;;;15.98;10.73;;;17.10;76.40;;;;;;5029946;28;20024;-80
2023/06/09 04:22:51;;;;;;;17.58;11.10;;;17.10;76.40;;;;;;5041231;28;20637;-80
2023/06/09 04:25:19;;;;;;;16.30;11.27;;;17.10;76.50;;;;;;5035300;28;20067;-82
2023/06/09 04:27:48;;;;;;;14.07;10.90;;;17.10;76.30;;;;;;5040930;28;20544;-80
2023/06/09 04:30:13;;;;;;;22.00;11.38;;;17.20;76.10;;;;;;5041913;28;20044;-82
2023/06/09 04:32:39;;;;;;;16.52;10.82;;;17.20;76.00;;;;;;5036582;28;20029;-80
2023/06/09 04:35:05;;;;;;;20.33;11.63;;;17.20;76.10;;;;;;5040396;28;20031;-79
2023/06/09 04:37:31;;;;;;;18.63;10.63;;;17.20;76.00;;;;;;5036596;28;20025;-80
2023/06/09 04:39:58;;;;;;;17.10;11.00;;;17.40;75.90;;;;;;5036391;28;20029;-80
2023/06/09 04:42:24;;;;;;;19.30;11.07;;;17.40;75.70;;;;;;5034519;28;20552;-80
2023/06/09 04:44:50;;;;;;;17.10;10.35;;;17.50;75.30;;;;;;5032769;28;20110;-80
2023/06/09 04:47:20;;;;;;;15.45;10.65;;;17.60;75.20;;;;;;5033477;28;20496;-80
2023/06/09 04:49:49;;;;;;;16.98;10.75;;;17.60;74.80;;;;;;5039116;28;20553;-80
2023/06/09 04:52:19;;;;;;;18.08;10.60;;;17.70;74.80;;;;;;5037107;28;20029;-81
2023/06/09 04:54:45;;;;;;;17.25;11.18;;;17.70;74.60;;;;;;5037511;28;20017;-80
2023/06/09 04:57:17;;;;;;;18.92;11.02;;;17.80;74.30;;;;;;5036890;28;20126;-81
2023/06/09 04:59:45;;;;;;;15.70;11.15;;;17.90;74.00;;;;;;5034201;28;20028;-82
2023/06/09 05:02:11;;;;;;;19.05;11.40;;;18.00;73.80;;;;;;5039706;28;20037;-82
2023/06/09 05:04:36;;;;;;;23.92;11.75;;;18.10;73.30;;;;;;5037429;28;20666;-80
2023/06/09 05:07:03;;;;;;;14.48;10.88;;;18.20;73.00;;;;;;5030612;28;20112;-81
2023/06/09 05:09:29;;;;;;;14.80;9.93;;;18.50;72.70;;;;;;5036711;28;20025;-81
2023/06/09 05:11:55;;;;;;;18.90;10.50;;;19.60;70.50;;;;;;5043812;28;20039;-80
2023/06/09 05:14:20;;;;;;;17.65;10.13;;;20.90;64.40;;;;;;5031913;28;20049;-81
2023/06/09 05:16:46;;;;;;;15.38;10.13;;;21.60;61.70;;;;;;5037959;28;20145;-80
2023/06/09 05:19:12;;;;;;;15.25;9.25;;;22.20;59.70;;;;;;5037758;28;20044;-80
2023/06/09 05:21:38;;;;;;;15.98;9.82;;;22.90;57.70;;;;;;5031738;28;20079;-80
2023/06/09 05:24:05;;;;;;;15.23;9.38;;;23.50;55.70;;;;;;5039964;28;20444;-80
2023/06/09 05:26:31;;;;;;;16.10;9.52;;;23.90;55.00;;;;;;5036590;28;20063;-80
2023/06/09 05:28:58;;;;;;;18.55;9.40;;;24.30;53.30;;;;;;5039220;28;20432;-81
2023/06/09 05:31:24;;;;;;;14.90;9.48;;;24.50;52.40;;;;;;5040062;28;20032;-80
2023/06/09 05:33:50;;;;;;;15.35;9.75;;;25.00;51.50;;;;;;5040446;28;20024;-80
2023/06/09 05:36:16;;;;;;;15.10;9.55;;;25.10;50.70;;;;;;5035864;28;20041;-80
2023/06/09 05:38:42;;;;;;;16.40;9.93;;;24.80;51.40;;;;;;5041463;28;20048;-80
2023/06/09 05:41:07;;;;;;;16.45;9.57;;;24.80;51.00;;;;;;5035566;28;20414;-80
2023/06/09 05:43:33;;;;;;;17.63;9.38;;;24.50;52.40;;;;;;5034777;28;20036;-79
2023/06/09 05:45:59;;;;;;;18.42;10.90;;;24.30;52.40;;;;;;5034782;28;20418;-80
2023/06/09 05:48:25;;;;;;;18.88;10.98;;;24.50;51.90;;;;;;5033034;28;20036;-80
2023/06/09 05:50:51;;;;;;;16.52;10.40;;;24.40;52.50;;;;;;5032210;28;20405;-81
2023/06/09 05:53:17;;;;;;;16.30;11.20;;;24.00;53.60;;;;;;5036330;28;20025;-81
2023/06/09 05:55:46;;;;;;;15.40;11.10;;;23.30;55.40;;;;;;5033205;28;20021;-80
2023/06/09 05:58:14;;;;;;;16.45;11.77;;;22.20;58.30;;;;;;5035631;28;20055;-80
2023/06/09 06:00:40;;;;;;;16.63;11.15;;;21.40;60.60;;;;;;5031836;28;20557;-80
2023/06/09 06:03:08;;;;;;;17.45;11.93;;;21.00;62.70;;;;;;5039071;28;20191;-80
2023/06/09 06:05:33;;;;;;;19.00;12.43;;;20.90;63.50;;;;;;5032425;28;20104;-80
2023/06/09 06:08:00;;;;;;;18.05;11.40;;;21.00;63.50;;;;;;5035140;28;20735;-77
2023/06/09 06:10:26;;;;;;;17.98;12.07;;;21.00;63.30;;;;;;5038163;28;20115;-74
2023/06/09 06:12:52;;;;;;;21.65;12.45;;;20.90;64.20;;;;;;5036505;28;20191;-75
2023/06/09 06:15:18;;;;;;;16.00;11.52;;;20.90;64.10;;;;;;5036796;28;20061;-77
2023/06/09 06:17:44;;;;;;;15.88;12.85;;;20.90;63.90;;;;;;5040480;28;20103;-77
2023/06/09 06:20:12;;;;;;;21.63;13.35;;;21.00;63.90;;;;;;5042558;28;20467;-76
2023/06/09 06:22:39;;;;;;;20.52;12.73;;;21.00;64.20;;;;;;5041925;28;20102;-76
2023/06/09 06:25:05;;;;;;;16.73;12.45;;;21.10;63.80;;;;;;5036876;28;20457;-76
2023/06/09 06:27:30;;;;;;;19.08;12.90;;;21.20;63.60;;;;;;5039055;28;20122;-76
2023/06/09 06:29:56;;;;;;;16.92;13.27;;;21.00;63.90;;;;;;5043061;28;20086;-77
2023/06/09 06:32:22;;;;;;;20.13;12.63;;;21.20;63.50;;;;;;5036921;28;20045;-76
2023/06/09 06:34:47;;;;;;;19.23;12.80;;;21.10;64.10;;;;;;5035095;28;20090;-76
2023/06/09 06:37:13;;;;;;;18.52;13.55;;;21.30;63.30;;;;;;5034159;28;20495;-77
2023/06/09 06:39:39;;;;;;;19.38;13.35;;;21.40;62.80;;;;;;5040645;28;20040;-74
2023/06/09 06:42:06;;;;;;;18.75;13.57;;;21.60;62.40;;;;;;5035182;28;20038;-75
2023/06/09 06:44:31;;;;;;;19.83;13.20;;;21.60;61.80;;;;;;5042343;28;20382;-73
2023/06/09 06:46:57;;;;;;;17.55;12.82;;;21.70;62.00;;;;;;5030417;28;20441;-75
2023/06/09 06:49:22;;;;;;;20.02;13.50;;;21.90;62.20;;;;;;5040200;28;20499;-75
2023/06/09 06:51:48;;;;;;;22.17;14.05;;;22.00;61.50;;;;;;5036088;28;20029;-74
2023/06/09 06:54:16;;;;;;;18.05;12.85;;;22.00;61.30;;;;;;5038374;28;20433;-75
2023/06/09 06:56:41;;;;;;;16.42;12.02;;;22.10;61.20;;;;;;5037147;28;20029;-73
2023/06/09 06:59:07;;;;;;;17.98;13.27;;;22.30;61.20;;;;;;5044857;28;20453;-73
2023/06/09 07:01:33;;;;;;;19.88;13.20;;;22.40;60.10;;;;;;5037416;28;20116;-76
2023/06/09 07:03:59;;;;;;;15.50;12.70;;;22.60;60.70;;;;;;5046906;28;20074;-72
2023/06/09 07:06:25;;;;;;;17.55;12.75;;;22.60;60.30;;;;;;5040510;28;20802;-73
2023/06/09 07:08:54;;;;;;;19.92;13.38;;;22.60;59.80;;;;;;5045980;28;20260;-73
2023/06/09 07:11:19;;;;;;;20.95;13.23;;;22.70;59.10;;;;;;5044843;28;20033;-74
2023/06/09 07:13:45;;;;;;;19.15;12.73;;;22.80;59.40;;;;;;5041957;28;20398;-72
2023/06/09 07:16:11;;;;;;;19.63;12.75;;;22.70;58.70;;;;;;5042771;28;20087;-72
2023/06/09 07:18:36;;;;;;;17.35;12.38;;;23.10;59.20;;;;;;5040465;28;20045;-74
2023/06/09 07:21:02;;;;;;;15.93;11.75;;;23.20;58.50;;;;;;5036229;28;20082;-73
2023/06/09 07:23:28;;;;;;;16.15;12.98;;;23.40;58.50;;;;;;5036681;28;20035;-73
2023/06/09 07:25:54;;;;;;;15.43;12.07;;;23.50;57.50;;;;;;5042000;28;20032;-73
2023/06/09 07:28:20;;;;;;;17.15;12.95;;;23.70;57.90;;;;;;5039717;28;20086;-74
2023/06/09 07:30:46;;;;;;;20.77;13.52;;;23.80;56.80;;;;;;5040728;28;20029;-74
2023/06/09 07:33:11;;;;;;;18.10;12.52;;;24.10;56.40;;;;;;5045266;28;20446;-74
2023/06/09 07:35:37;;;;;;;15.18;12.70;;;24.00;56.60;;;;;;5041148;28;20075;-73
2023/06/09 07:38:03;;;;;;;16.65;12.02;;;23.70;57.00;;;;;;5044378;28;20053;-73
2023/06/09 07:40:29;;;;;;;20.35;13.10;;;23.90;56.80;;;;;;5043610;28;20557;-72
2023/06/09 07:42:56;;;;;;;15.70;11.75;;;24.00;56.40;;;;;;5044837;28;20055;-72
2023/06/09 07:45:22;;;;;;;15.20;11.35;;;24.10;56.50;;;;;;5041660;28;20647;-72
2023/06/09 07:47:47;;;;;;;14.95;11.70;;;24.10;56.00;;;;;;5040923;28;20267;-73
2023/06/09 07:50:13;;;;;;;17.83;13.30;;;24.50;56.10;;;;;;5033754;28;20032;-73
2023/06/09 07:52:39;;;;;;;16.67;11.88;;;24.50;54.80;;;;;;5034201;28;20038;-74
2023/06/09 07:55:06;;;;;;;18.15;13.13;;;24.60;55.10;;;;;;5038650;28;20416;-73
2023/06/09 07:57:32;;;;;;;19.13;14.52;;;24.50;54.40;;;;;;5033206;28;20048;-73
2023/06/09 07:59:58;;;;;;;18.23;12.30;;;24.50;54.50;;;;;;5038135;28;20043;-74
2023/06/09 08:02:24;;;;;;;16.00;11.43;;;24.50;54.20;;;;;;5040961;28;20033;-72
2023/06/09 08:04:49;;;;;;;16.15;12.13;;;24.70;54.60;;;;;;5044512;28;20032;-79
2023/06/09 08:07:15;;;;;;;14.13;10.75;;;24.80;54.50;;;;;;5037137;28;20484;-78
2023/06/09 08:09:41;;;;;;;15.40;12.10;;;25.00;54.10;;;;;;5039947;28;20469;-78
2023/06/09 08:12:07;;;;;;;18.92;11.98;;;25.30;52.60;;;;;;5041956;28;20861;-78
2023/06/09 08:14:33;;;;;;;17.20;11.82;;;25.10;53.50;;;;;;5041161;28;20118;-78
2023/06/09 08:16:59;;;;;;;18.27;13.25;;;25.40;53.50;;;;;;5033526;28;20347;-75
2023/06/09 08:19:25;;;;;;;18.20;13.07;;;25.20;53.70;;;;;;5040249;28;20562;-77
2023/06/09 08:21:51;;;;;;;17.63;12.35;;;25.00;53.20;;;;;;5029757;28;20159;-78
2023/06/09 08:24:17;;;;;;;15.73;11.98;;;25.00;54.70;;;;;;5042876;28;21694;-77
2023/06/09 08:26:44;;;;;;;15.07;11.38;;;25.50;53.30;;;;;;5025513;28;20473;-77
2023/06/09 08:29:10;;;;;;;16.50;12.32;;;25.60;52.30;;;;;;5032311;28;20443;-75
2023/06/09 08:31:39;;;;;;;17.02;11.93;;;25.60;52.50;;;;;;5026980;28;20450;-76
2023/06/09 08:34:05;;;;;;;14.65;12.15;;;25.50;52.80;;;;;;5026957;28;20535;-77
2023/06/09 08:36:31;;;;;;;14.27;10.98;;;25.30;52.00;;;;;;5027449;28;20029;-77
2023/06/09 08:38:57;;;;;;;14.82;10.73;;;25.20;53.50;;;;;;5025506;28;20047;-78
2023/06/09 08:41:28;;;;;;;15.40;10.18;;;25.80;52.20;;;;;;5028431;28;20049;-78
2023/06/09 08:43:54;;;;;;;13.80;10.27;;;26.10;51.80;;;;;;5033480;28;20029;-77
2023/06/09 08:46:21;;;;;;;15.18;11.57;;;26.30;50.20;;;;;;5024559;28;20038;-78
2023/06/09 08:48:57;;;;;;;18.67;12.07;;;26.00;50.60;;;;;;5027598;28;20504;-76
2023/06/09 08:51:23;;;;;;;15.30;10.10;;;25.80;51.50;;;;;;5031470;28;20676;-76
2023/06/09 08:53:52;;;;;;;12.55;9.15;;;26.10;49.80;;;;;;5022388;28;20028;-76
2023/06/09 08:56:21;;;;;;;13.02;9.75;;;26.60;50.20;;;;;;5025642;28;20338;-76
2023/06/09 08:58:48;;;;;;;12.30;9.15;;;27.00;49.00;;;;;;5026419;28;20037;-77
2023/06/09 09:01:18;;;;;;;11.38;9.07;;;26.80;48.50;;;;;;5029601;28;20033;-77
2023/06/09 09:03:46;;;;;;;14.95;9.73;;;26.90;49.40;;;;;;5040273;28;20030;-77
2023/06/09 09:06:13;;;;;;;12.13;9.45;;;27.30;47.90;;;;;;5036955;28;20037;-76
2023/06/09 09:08:39;;;;;;;13.70;9.60;;;27.60;46.70;;;;;;5031697;28;20120;-76
2023/06/09 09:11:05;;;;;;;13.73;8.80;;;27.70;46.70;;;;;;5044076;28;20032;-76
2023/06/09 09:13:32;;;;;;;14.10;8.68;;;27.90;46.60;;;;;;5033927;28;20049;-78
2023/06/09 09:16:01;;;;;;;10.93;8.02;;;28.10;45.90;;;;;;5034289;28;20455;-77
2023/06/09 09:18:31;;;;;;;12.70;8.73;;;28.00;44.00;;;;;;5043273;28;20048;-76
2023/06/09 09:20:58;;;;;;;11.73;7.72;;;28.00;44.40;;;;;;5040587;28;20087;-76
2023/06/09 09:23:34;;;;;;;11.02;8.05;;;27.70;44.70;;;;;;5040531;28;20013;-76
2023/06/09 09:26:01;;;;;;;12.77;8.70;;;27.80;44.40;;;;;;5036865;28;20513;-77
2023/06/09 09:28:41;;;;;;;11.23;7.65;;;28.00;44.40;;;;;;5035775;28;20033;-79
2023/06/09 09:31:11;;;;;;;11.77;8.10;;;28.30;44.30;;;;;;5025745;28;20056;-77
2023/06/09 09:33:45;;;;;;;13.07;8.27;;;28.50;43.80;;;;;;5024755;28;20090;-76
2023/06/09 09:36:11;;;;;;;12.10;8.20;;;28.30;43.60;;;;;;5030192;28;20616;-75
2023/06/09 09:38:42;;;;;;;13.43;9.60;;;28.10;44.90;;;;;;5023015;28;20037;-78
2023/06/09 09:41:14;;;;;;;13.35;8.70;;;28.20;43.90;;;;;;5029070;28;20692;-76
2023/06/09 09:43:40;;;;;;;12.65;8.00;;;28.10;44.50;;;;;;5033818;28;20029;-75
2023/06/09 09:46:07;;;;;;;13.00;7.88;;;28.40;43.40;;;;;;5037405;28;22087;-74
2023/06/09 09:48:39;;;;;;;11.57;8.60;;;28.70;43.70;;;;;;5038831;28;20041;-76
2023/06/09 09:51:06;;;;;;;11.82;8.25;;;28.80;42.60;;;;;;5033003;28;20466;-75
2023/06/09 09:53:33;;;;;;;12.98;8.45;;;29.00;42.40;;;;;;5035646;28;20029;-78
2023/06/09 09:56:02;;;;;;;12.50;8.20;;;28.40;42.60;;;;;;5035216;28;20025;-76
2023/06/09 09:58:39;;;;;;;9.52;7.97;;;28.50;43.30;;;;;;5042634;28;20036;-78
2023/06/09 10:01:06;;;;;;;11.40;8.25;;;28.30;42.60;;;;;;5034257;28;20018;-78
2023/06/09 10:03:33;;;;;;;9.85;7.30;;;28.40;42.90;;;;;;5037812;28;20052;-77
2023/06/09 10:06:02;;;;;;;10.23;7.57;;;28.60;41.70;;;;;;5042373;28;20579;-78
2023/06/09 10:08:30;;;;;;;10.38;7.40;;;28.40;42.30;;;;;;5040040;28;20033;-77
2023/06/09 10:10:57;;;;;;;11.82;7.45;;;28.80;42.20;;;;;;5033299;28;20470;-76
2023/06/09 10:13:26;;;;;;;11.95;7.63;;;29.10;41.80;;;;;;5030603;28;20041;-76
2023/06/09 10:15:53;;;;;;;9.50;6.78;;;29.40;41.50;;;;;;5036306;28;20116;-77
2023/06/09 10:18:20;;;;;;;10.30;7.25;;;29.80;40.70;;;;;;5040642;28;20056;-77
2023/06/09 10:20:50;;;;;;;11.52;7.45;;;29.90;39.50;;;;;;5041359;28;20473;-76
2023/06/09 10:23:16;;;;;;;11.38;7.60;;;30.20;40.00;;;;;;5033844;28;20037;-76
2023/06/09 10:25:45;;;;;;;11.13;7.05;;;29.60;40.10;;;;;;5035289;28;20030;-76
2023/06/09 10:28:12;;;;;;;10.00;6.80;;;29.40;40.30;;;;;;5054694;28;20052;-76
2023/06/09 10:30:38;;;;;;;10.88;6.38;;;29.50;39.40;;;;;;5047797;28;20033;-75
2023/06/09 10:33:22;;;;;;;12.63;7.45;;;29.60;39.00;;;;;;5058809;28;20048;-77
2023/06/09 10:35:49;;;;;;;11.25;7.28;;;29.90;38.80;;;;;;5040636;28;20036;-76
2023/06/09 10:38:38;;;;;;;13.55;7.78;;;29.60;39.70;;;;;;5009886;28;20297;-76
2023/06/09 10:41:16;;;;;;;9.32;6.63;;;29.50;39.30;;;;;;5010127;28;20099;-76
2023/06/09 10:43:51;;;;;;;12.38;6.88;;;29.80;39.70;;;;;;5012601;28;20053;-76
2023/06/09 10:46:17;;;;;;;11.15;7.68;;;29.80;39.70;;;;;;5006464;28;20045;-75
2023/06/09 10:48:48;;;;;;;9.38;6.68;;;30.00;39.30;;;;;;5012332;28;20033;-76
2023/06/09 10:51:29;;;;;;;9.85;6.57;;;30.20;38.30;;;;;;5009221;28;20037;-76
2023/06/09 10:54:24;;;;;;;11.45;6.93;;;30.20;37.40;;;;;;5010994;28;20433;-77
2023/06/09 10:56:52;;;;;;;10.43;7.00;;;30.40;37.40;;;;;;5013426;28;20053;-76
2023/06/09 10:59:30;;;;;;;9.25;7.38;;;30.50;37.50;;;;;;5010118;28;20041;-74
2023/06/09 11:02:05;;;;;;;9.57;6.85;;;29.60;37.70;;;;;;5012616;28;20042;-75
2023/06/09 11:04:46;;;;;;;10.40;7.32;;;29.30;38.40;;;;;;5010064;28;20108;-75
2023/06/09 11:07:15;;;;;;;10.02;6.68;;;29.50;37.90;;;;;;5008146;28;20390;-75
2023/06/09 11:09:47;;;;;;;9.90;5.72;;;30.00;37.30;;;;;;5009855;28;20026;-77
2023/06/09 11:12:28;;;;;;;10.32;6.65;;;30.00;36.60;;;;;;5007809;28;20302;-75
2023/06/09 11:14:58;;;;;;;9.82;6.50;;;30.30;37.40;;;;;;5009048;28;20030;-76
2023/06/09 11:17:39;;;;;;;9.65;6.75;;;30.40;38.00;;;;;;5009225;28;20075;-75
2023/06/09 11:20:08;;;;;;;10.80;6.68;;;30.70;37.30;;;;;;5008246;28;20090;-74
2023/06/09 11:22:54;;;;;;;9.52;6.47;;;30.70;36.20;;;;;;5012993;28;20030;-76
2023/06/09 11:25:33;;;;;;;10.45;6.13;;;30.70;36.50;;;;;;5008543;28;20044;-75
2023/06/09 11:27:59;;;;;;;9.05;7.15;;;30.80;36.80;;;;;;5009356;28;20041;-75
2023/06/09 11:30:30;;;;;;;14.18;6.47;;;30.90;36.90;;;;;;5008516;28;20034;-75
2023/06/09 11:33:00;;;;;;;8.98;6.20;;;31.00;36.00;;;;;;5011898;28;20044;-75
2023/06/09 11:35:32;;;;;;;11.00;7.05;;;31.10;36.00;;;;;;5020398;28;20013;-75
2023/06/09 11:38:05;;;;;;;9.30;7.07;;;31.20;36.20;;;;;;5021084;28;20552;-75
2023/06/09 11:40:36;;;;;;;9.43;7.10;;;31.30;35.50;;;;;;5019198;28;20025;-75
2023/06/09 11:43:07;;;;;;;10.55;7.05;;;31.40;36.70;;;;;;5012936;28;20026;-76
2023/06/09 11:45:34;;;;;;;12.43;6.70;;;31.50;35.70;;;;;;5019688;28;20437;-76
2023/06/09 11:48:01;;;;;;;9.90;6.22;;;31.40;35.80;;;;;;5010753;28;20069;-75
2023/06/09 11:50:39;;;;;;;10.18;6.53;;;31.30;34.30;;;;;;5018231;28;20387;-76
2023/06/09 11:53:34;;;;;;;7.97;6.03;;;31.50;34.20;;;;;;5017548;28;20042;-77
2023/06/09 11:56:03;;;;;;;10.48;7.20;;;31.20;34.70;;;;;;5022181;28;20045;-76
2023/06/09 11:58:29;;;;;;;10.57;6.35;;;31.50;34.40;;;;;;5020608;28;20022;-76
2023/06/09 12:00:56;;;;;;;9.40;6.65;;;31.60;34.00;;;;;;5015042;28;20022;-76
2023/06/09 12:03:23;;;;;;;8.27;6.03;;;31.40;34.20;;;;;;5010870;28;20017;-77
2023/06/09 12:05:50;;;;;;;7.88;5.90;;;31.50;34.10;;;;;;5010589;28;20026;-76
2023/06/09 12:08:15;;;;;;;11.32;6.95;;;31.50;34.20;;;;;;5007518;28;20022;-77
2023/06/09 12:10:41;;;;;;;12.27;7.05;;;31.70;35.10;;;;;;5015237;28;20781;-76
2023/06/09 12:13:07;;;;;;;11.57;7.03;;;31.50;35.60;;;;;;5017691;28;20669;-76
2023/06/09 12:15:33;;;;;;;9.98;7.00;;;31.30;34.20;;;;;;5010733;28;20043;-77
2023/06/09 12:18:03;;;;;;;10.38;6.97;;;31.30;33.60;;;;;;5019312;28;20148;-76
2023/06/09 12:20:34;;;;;;;9.00;6.78;;;31.10;34.50;;;;;;5022883;28;20492;-75
2023/06/09 12:23:12;;;;;;;10.57;7.00;;;31.10;34.80;;;;;;5021105;28;20033;-76
2023/06/09 12:25:39;;;;;;;10.05;6.85;;;31.20;35.50;;;;;;5022554;28;20035;-76
2023/06/09 12:28:21;;;;;;;9.43;6.82;;;31.40;35.20;;;;;;5014132;28;20061;-76
2023/06/09 12:30:49;;;;;;;9.10;6.15;;;31.40;33.60;;;;;;5019275;28;20044;-77
2023/06/09 12:33:17;;;;;;;9.40;6.70;;;31.60;34.00;;;;;;5023446;28;20025;-79
2023/06/09 12:35:48;;;;;;;9.55;7.03;;;31.80;33.00;;;;;;5020808;28;20449;-78
2023/06/09 12:38:17;;;;;;;8.98;6.53;;;31.70;33.10;;;;;;5021600;28;20056;-77